Estación Meteorológica Peña el Pijo (Robertgarden) [ 11/12/19 04:21:38 CET ]

Fecha Hora Presion(HPa) Temp (°C) Humedad % Rocio (°C) Viento ( m/s) Direccion Lluvia 1Hora(mm) Lluvia 24H(mm) LLuvia Total(mm)
2019-Jan-14 01:01:38 1012.200 2.7 55 -5.5         161.09
2019-Jan-14 02:09:03 1011.800 2.8 56 -5.1         161.09
2019-Jan-14 03:02:00 1011.600 2.6 57 -5.1         161.09
2019-Jan-14 04:01:52 1011.800 2.1 61 -4.6         161.09
2019-Jan-14 05:01:47 1011.300 1.5 63 -4.8         161.09
2019-Jan-14 06:01:49 1011.100 1.9 64 -4.2         161.09
2019-Jan-14 07:01:57 1011.100 1.3 66 -4.4         161.09
2019-Jan-14 08:01:43 1011.400 1.2 68 -4.1         161.09
2019-Jan-14 09:01:49 1011.500 1.5 69 -3.6         161.09
2019-Jan-14 10:01:51 1011.300 6.7 64 0.4         161.09
2019-Jan-14 11:01:43 1011.000 12.9 46 1.5         161.09
2019-Jan-14 12:01:40 1010.400 15.9 38 1.5         161.09
2019-Jan-14 13:01:54 1009.300 17.2 34 1.1 1.6 N     161.09
2019-Jan-14 14:01:54 1008.900 18.6 31 1.1         161.09
2019-Jan-14 15:01:36 1008.200 19.9 28 0.7         161.09
2019-Jan-14 16:01:37 1008.000 18.5 26 -1.6         161.09
2019-Jan-14 17:01:32 1008.200 15.2 30 -2.2         161.09
2019-Jan-14 18:01:36 1008.300 11.3 35 -3.7         161.09
2019-Jan-14 19:01:47 1008.900 6.9 43 -4.9         161.09
2019-Jan-14 20:01:33 1009.200 5.1 51 -4.3         161.09
2019-Jan-14 21:01:50 1009.200 5.2 52 -3.9         161.09
2019-Jan-14 22:01:37 1009.200 3.9 55 -4.4         161.09
2019-Jan-14 23:01:48 1009.200 2.6 57 -5.1         161.09

Temperatura Máxima:19°    Temperatura Mínima:
Presión Máxima:1012.200 Hpa    Presión Mínima:1008.000 Hpa


Volver